Flight Track Log - Related Links

Times and Time Zones

All times are in EDT time to prevent confusion due to time zone crossing. See the EJA831 flight status page for this flight to view local times or setup timezone preferences in your user account.

Time Position Orientation Groundspeed Altitude Reporting Facility
EDT Latitude Longitude Course Direction KTS MPH feet Rate Location/Type
Fri 12:00:08 PM 34.4278 -119.8583 268° West 187 215 600  Level Los Angeles Center
Fri 12:00:31 PM 34.4269 -119.8839 268° West 196 226 1,500 3,167 Climbing Los Angeles Center
Fri 12:00:44 PM 34.4181 -119.9033 241° Southwest 217 250 2,500 2,476 Climbing Los Angeles Center
Fri 12:01:34 PM 34.3722 -119.9047 181° South 247 284 4,100 2,143 Climbing Los Angeles Center
Fri 12:02:36 PM 34.3092 -119.8644 152° Southeast 262 302 6,500 2,226 Climbing Los Angeles Center
Fri 12:03:38 PM 34.2431 -119.8142 148° Southeast 276 318 8,700 2,129 Climbing Los Angeles Center
Fri 12:04:40 PM 34.1856 -119.7189 126° Southeast 291 335 10,900 1,113 Climbing Los Angeles Center
Fri 12:05:42 PM 34.1844 -119.6192 91° East 317 365 11,000 48 Climbing Los Angeles Center
Fri 12:06:44 PM 34.2094 -119.5133 74° East 326 375 11,000  Level Los Angeles Center
Fri 12:07:46 PM 34.2347 -119.4072 74° East 329 379 11,000  Level Los Angeles Center
Fri 12:08:48 PM 34.2611 -119.2994 73° East 333 383 11,000 -96 Level Los Angeles Center
Fri 12:09:51 PM 34.2858 -119.1914 74° East 335 386 10,800 -912 Descending Los Angeles Center
Fri 12:10:53 PM 34.3128 -119.0769 74° East 296 341 9,100 -871 Descending Los Angeles Center
Fri 12:11:55 PM 34.3319 -118.9889 75° East 275 316 9,000 -290 Descending Los Angeles Center
Fri 12:12:57 PM 34.3461 -118.8983 79° East 270 311 8,500 -1,065 Descending Los Angeles Center
Fri 12:13:59 PM 34.3169 -118.8089 112° Southeast 282 325 6,800 -1,645 Descending Los Angeles Center
Fri 12:15:01 PM 34.2892 -118.7247 112° Southeast 272 313 5,100 -1,306 Descending Los Angeles Center
Fri 12:16:03 PM 34.2628 -118.6456 112° Southeast 264 304 4,100 -1,009 Descending Los Angeles Center
Fri 12:16:48 PM 34.2333 -118.5833 120° Southeast 219 252 3,300 -970 Descending Southern California TRACON
Fri 12:17:42 PM 34.2000 -118.5500 140° Southeast 222 255 2,500 -700 Descending Southern California TRACON
Fri 12:18:48 PM 34.1500 -118.5167 151° Southeast 174 200 1,900 -619 Descending Southern California TRACON
Fri 12:19:48 PM 34.1667 -118.4833 59° Northeast 116 133 1,200 -700 Descending Southern California TRACON
Fri 12:22:00 PM 34.2000 -118.4833 90° East  Level FlightAware Approximate
Fri 12:29:00 PM 34.2098 -118.4900 90° East  Level Estimated

Login

Don't have an account? Register now (free) for customized features, flight alerts, and more!